Language selection

My Weather Profile Weather Topics  | 

Hecate Strait - northern half: Past 24 Hour Conditions

 

West Dixon Entrance - 46205

03:00 PM PDT 06 May 2021Buoy position: 54.17N 134.28W
Disclaimer

This table is a summary of hourly weather conditions for the past 24 hours.
Please note that these observations might not always be representative of weather conditions over their associated marine area.

Date / Time
(PDT)
Wind(knots) Wave height(m) Wave period(s) Pressure(kPa) Air tempC) Water tempC)
06 May 2021
15:00 SSE 22 gust 27 3.5 10.0 99.9 7 8
14:00 SSE 22 gust 27 3.9 10.0 99.8 8 8
13:00 SE 23 gust 29 4.0 11.0 99.8 8 8
12:00 SE 23 gust 29 4.0 11.0 99.7 8 8
11:00 SE 23 gust 29 5.0 11.0 99.7 7 8
10:00 SE 25 gust 31 5.3 11.0 99.6 7 8
9:00 SE 27 gust 33 5.3 11.0 99.6 8 8
8:00 SE 27 gust 37 4.9 12.0 99.6 8 8
7:00 SE 29 gust 37 5.0 12.0 99.6 8 8
6:00 SE 27 gust 35 4.3 11.0 99.6 8 8
5:00 E 16 gust 19 4.4 11.0 99.7 9 8
4:00 E 16 gust 22 5.0 12.0 99.7 9 8
3:00 E 16 gust 19 4.3 10.0 99.8 9 8
2:00 E 10 gust 13 3.3 8.0 100.0 8 8
1:00 E 13 gust 17 2.8 9.0 100.0 9 8
0:00 E 13 gust 17 2.1 6.0 100.1 9 8
05 May 2021
23:00 E 13 gust 17 2.0 6.0 100.2 9 8
22:00 E 13 gust 16 N/A 6.0 100.3 9 8
21:00 E 16 gust 22 1.9 6.0 100.4 8 8
20:00 E 19 gust 23 1.9 6.0 100.4 8 8
19:00 E 19 gust 23 1.9 6.0 100.5 8 8
18:00 ENE 19 gust 23 2.0 10.0 100.7 8 8
17:00 ENE 22 gust 25 1.8 10.0 100.8 8 8
16:00 ENE 22 gust 25 1.7 10.0 100.9 8 8
15:00 ENE 16 gust 22 1.7 10.0 101.1 8 8

Zoom-in to make a selection

Map of Pacific - North Coast marine weather areas Middle Nomad - 46004 South Nomad - 46036 Dixon Entrance Central - 46145 South Moresby - 46147 Nanakwa Shoal - 46181 North Hecate Strait - 46183 North Nomad - 46184 South Hecate Strait - 46185 West Sea Otter - 46204 West Dixon Entrance - 46205 East Dellwood - 46207 West Moresby - 46208 Sartine Island Cape St.James Kindakun Rocks Langara Island Masset Municipal Airport Rose Spit Sandspit Airport Bella Bella Airport Bella Coola Airport Bonilla Island Cathedral Point Cumshewa Island Grey Islet Holland Rock Lucy Islands Lightstation Prince Rupert Airport
Legend:
buoy Buoy
land station Land Station

Pacific - North Coast Area

Another Region

What we are doing

Date modified: